Time;durP1;ratioP1;P1;durP2;ratioP2;P2;SDS_P1;SDS_P2;PMS_P1;PMS_P2;Temp;Humidity;BMP_temperature;BMP_pressure;BME280_temperature;BME280_humidity;BME280_pressure;Samples;Min_cycle;Max_cycle;Signal;HPM_P1;HPM_P2
2022/01/05 00:00:35;;;;;;;8.38;2.30;;;;;;;4.48;100.00;100031.59;5215093;28;20479;-70
2022/01/05 00:03:07;;;;;;;7.80;2.17;;;;;;;4.51;100.00;100037.41;5215272;28;20435;-72
2022/01/05 00:05:38;;;;;;;7.85;2.88;;;;;;;4.52;100.00;100043.41;5213867;28;20087;-72
2022/01/05 00:08:09;;;;;;;13.43;2.50;;;;;;;4.49;100.00;100041.03;5214701;28;20538;-71
2022/01/05 00:10:41;;;;;;;13.98;2.85;;;;;;;4.44;100.00;100053.53;5214942;28;20106;-72
2022/01/05 00:13:12;;;;;;;12.35;2.75;;;;;;;4.42;100.00;100045.84;5212491;28;20029;-72
2022/01/05 00:15:43;;;;;;;10.75;3.03;;;;;;;4.39;100.00;100048.63;5214930;28;20057;-72
2022/01/05 00:18:15;;;;;;;11.55;2.30;;;;;;;4.34;100.00;100050.75;5214607;28;20025;-72
2022/01/05 00:20:46;;;;;;;12.90;2.50;;;;;;;4.36;100.00;100051.47;5214663;28;20037;-70
2022/01/05 00:23:18;;;;;;;10.88;2.40;;;;;;;4.35;100.00;100047.19;5213317;28;20045;-72
2022/01/05 00:25:49;;;;;;;9.57;2.20;;;;;;;4.29;100.00;100047.66;5212078;28;20026;-72
2022/01/05 00:28:20;;;;;;;14.90;2.88;;;;;;;4.24;100.00;100039.38;5214816;28;20029;-72
2022/01/05 00:30:51;;;;;;;10.15;2.08;;;;;;;4.20;100.00;100048.28;5215175;28;20701;-72
2022/01/05 00:33:23;;;;;;;9.65;2.03;;;;;;;4.18;100.00;100047.59;5213842;28;20525;-71
2022/01/05 00:35:54;;;;;;;8.93;2.00;;;;;;;4.10;100.00;100043.78;5214956;28;20475;-71
2022/01/05 00:38:25;;;;;;;11.23;2.80;;;;;;;4.06;100.00;100050.13;5213965;28;20416;-71
2022/01/05 00:40:57;;;;;;;14.38;3.33;;;;;;;4.02;100.00;100047.84;5215060;28;20354;-70
2022/01/05 00:43:28;;;;;;;7.65;2.38;;;;;;;4.01;100.00;100052.19;5213773;28;20033;-70
2022/01/05 00:45:59;;;;;;;12.43;2.78;;;;;;;3.94;100.00;100056.16;5214300;28;20092;-71
2022/01/05 00:48:32;;;;;;;9.20;2.53;;;;;;;3.95;100.00;100060.41;5214888;28;20022;-71
2022/01/05 00:51:06;;;;;;;8.15;2.53;;;;;;;3.88;100.00;100061.75;5213893;28;20454;-71
2022/01/05 00:53:38;;;;;;;18.02;2.75;;;;;;;3.87;100.00;100060.94;5214534;28;20148;-71
2022/01/05 00:56:09;;;;;;;15.98;2.70;;;;;;;3.83;100.00;100071.63;5213082;28;20079;-71
2022/01/05 00:58:40;;;;;;;10.98;2.55;;;;;;;3.80;100.00;100079.59;5213513;28;20025;-71
2022/01/05 01:01:12;;;;;;;10.77;2.42;;;;;;;3.74;100.00;100075.66;5213658;28;20035;-71
2022/01/05 01:03:43;;;;;;;11.80;2.20;;;;;;;3.70;100.00;100079.41;5214679;28;20037;-72
2022/01/05 01:06:15;;;;;;;10.35;2.80;;;;;;;3.61;100.00;100091.22;5213584;28;20038;-72
2022/01/05 01:08:46;;;;;;;11.07;2.15;;;;;;;3.61;100.00;100086.03;5213053;28;20116;-72
2022/01/05 01:11:17;;;;;;;10.27;2.20;;;;;;;3.59;100.00;100084.47;5212172;28;20026;-72
2022/01/05 01:13:49;;;;;;;10.10;2.38;;;;;;;3.55;100.00;100083.84;5214491;28;20321;-71
2022/01/05 01:16:20;;;;;;;10.43;2.60;;;;;;;3.47;100.00;100073.19;5214143;28;20028;-71
2022/01/05 01:18:51;;;;;;;8.32;2.65;;;;;;;3.54;100.00;100091.75;5210558;28;20255;-71
2022/01/05 01:21:23;;;;;;;11.40;2.78;;;;;;;3.50;100.00;100088.53;5211651;28;20390;-71
2022/01/05 01:23:55;;;;;;;12.57;2.83;;;;;;;3.46;100.00;100097.44;5214109;28;20032;-71
2022/01/05 01:26:29;;;;;;;13.00;2.50;;;;;;;3.41;100.00;100092.56;5212828;28;20044;-71
2022/01/05 01:29:00;;;;;;;;;;;;;;;3.90;100.00;100094.41;5213763;28;20033;-71
2022/01/05 01:31:31;;;;;;;12.68;2.33;;;;;;;3.46;100.00;100101.78;5213443;28;19914;-71
2022/01/05 01:34:03;;;;;;;8.38;2.72;;;;;;;3.36;100.00;100099.81;5213565;28;20120;-71
2022/01/05 01:36:34;;;;;;;12.32;2.72;;;;;;;3.33;100.00;100094.00;5212848;28;20053;-71
2022/01/05 01:39:05;;;;;;;11.93;3.25;;;;;;;3.33;100.00;100099.16;5212233;28;20052;-71
2022/01/05 01:41:37;;;;;;;10.25;2.67;;;;;;;3.34;100.00;100104.25;5213298;28;20030;-71
2022/01/05 01:44:08;;;;;;;8.95;2.47;;;;;;;3.29;100.00;100106.31;5213179;28;20020;-71
2022/01/05 01:46:39;;;;;;;9.82;2.80;;;;;;;3.30;100.00;100107.16;5211948;28;20052;-71
2022/01/05 01:49:11;;;;;;;13.85;2.60;;;;;;;3.30;100.00;100102.00;5213510;28;20022;-70
2022/01/05 01:51:42;;;;;;;7.72;2.38;;;;;;;3.25;100.00;100102.28;5214282;28;20121;-71
2022/01/05 01:54:14;;;;;;;11.23;2.75;;;;;;;3.15;100.00;100089.13;5213144;28;20104;-70
2022/01/05 01:56:46;;;;;;;12.25;3.03;;;;;;;3.20;100.00;100101.75;5211163;28;20037;-71
2022/01/05 01:59:17;;;;;;;9.90;2.83;;;;;;;3.18;100.00;100103.59;5212629;28;20495;-71
2022/01/05 02:01:49;;;;;;;9.68;2.47;;;;;;;3.20;100.00;100108.69;5213318;28;20105;-71
2022/01/05 02:04:21;;;;;;;9.75;1.95;;;;;;;3.14;100.00;100107.31;5211971;28;20034;-71
2022/01/05 02:06:52;;;;;;;12.98;2.40;;;;;;;3.19;100.00;100109.63;5212071;28;20119;-71
2022/01/05 02:09:24;;;;;;;8.15;2.53;;;;;;;3.16;100.00;100106.31;5212729;28;20497;-71
2022/01/05 02:11:55;;;;;;;12.48;2.58;;;;;;;3.08;100.00;100103.41;5211721;28;20061;-71
2022/01/05 02:14:26;;;;;;;11.95;2.97;;;;;;;3.14;100.00;100104.75;5211743;28;20033;-71
2022/01/05 02:17:02;;;;;;;8.80;2.00;;;;;;;3.14;100.00;100104.75;5212814;28;20013;-70
2022/01/05 02:19:33;;;;;;;12.02;3.00;;;;;;;3.14;100.00;100105.59;5212315;28;20026;-70
2022/01/05 02:22:05;;;;;;;14.45;2.30;;;;;;;3.12;100.00;100106.63;5212040;28;20033;-71
2022/01/05 02:24:36;;;;;;;9.02;2.47;;;;;;;3.08;100.00;100095.63;5212648;28;20029;-70
2022/01/05 02:27:08;;;;;;;11.55;2.53;;;;;;;3.08;100.00;100110.34;5212058;28;20034;-70
2022/01/05 02:29:39;;;;;;;11.48;2.78;;;;;;;3.05;100.00;100116.53;5211621;28;20061;-70
2022/01/05 02:32:11;;;;;;;11.38;2.00;;;;;;;3.00;100.00;100116.00;5212690;28;20132;-70
2022/01/05 02:34:44;;;;;;;10.82;2.28;;;;;;;3.02;100.00;100124.47;5211856;28;20116;-71
2022/01/05 02:37:15;;;;;;;10.60;2.70;;;;;;;2.97;100.00;100125.72;5211982;28;20040;-71
2022/01/05 02:39:47;;;;;;;15.32;2.35;;;;;;;2.91;100.00;100126.94;5212448;28;20391;-71
2022/01/05 02:42:28;;;;;;;13.63;2.38;;;;;;;2.96;100.00;100124.91;5212249;28;20109;-71
2022/01/05 02:45:00;;;;;;;8.32;2.45;;;;;;;2.83;100.00;100121.44;5211581;28;20426;-71
2022/01/05 02:47:31;;;;;;;13.07;2.85;;;;;;;2.82;100.00;100123.19;5212272;28;20029;-71
2022/01/05 02:50:04;;;;;;;9.70;2.35;;;;;;;2.77;100.00;100127.84;5212221;28;20501;-71
2022/01/05 02:52:35;;;;;;;7.82;2.10;;;;;;;2.75;100.00;100134.03;5212398;28;20410;-71
2022/01/05 02:55:08;;;;;;;10.13;2.63;;;;;;;2.68;100.00;100126.66;5211005;28;20057;-71
2022/01/05 02:57:40;;;;;;;12.68;2.45;;;;;;;2.71;100.00;100135.97;5212226;28;20104;-71
2022/01/05 03:00:13;;;;;;;10.55;2.55;;;;;;;2.69;100.00;100143.03;5211483;28;20021;-71
2022/01/05 03:02:44;;;;;;;11.93;2.50;;;;;;;2.71;100.00;100148.09;5210635;28;20481;-71
2022/01/05 03:05:16;;;;;;;9.05;2.25;;;;;;;2.64;100.00;100151.03;5211200;28;20106;-70
2022/01/05 03:07:47;;;;;;;8.45;2.22;;;;;;;2.64;100.00;100153.63;5211808;28;20121;-71
2022/01/05 03:10:18;;;;;;;15.50;2.78;;;;;;;2.64;100.00;100150.22;5212157;28;20026;-70
2022/01/05 03:12:50;;;;;;;13.73;2.67;;;;;;;2.58;100.00;100154.03;5211808;28;20642;-70
2022/01/05 03:15:22;;;;;;;10.40;2.67;;;;;;;2.56;100.00;100158.47;5210244;28;20495;-70
2022/01/05 03:17:53;;;;;;;8.80;2.10;;;;;;;2.59;100.00;100162.63;5211647;28;20033;-70
2022/01/05 03:20:24;;;;;;;9.07;2.35;;;;;;;2.57;100.00;100157.53;5211474;28;20041;-71
2022/01/05 03:22:56;;;;;;;10.55;2.28;;;;;;;2.57;100.00;100170.44;5212176;28;20037;-71
2022/01/05 03:25:27;;;;;;;11.70;2.80;;;;;;;2.58;100.00;100177.31;5212211;28;20029;-71
2022/01/05 03:27:59;;;;;;;11.82;2.78;;;;;;;2.55;100.00;100179.25;5212036;28;20036;-71
2022/01/05 03:30:31;;;;;;;8.82;2.30;;;;;;;2.53;100.00;100176.75;5210409;28;20025;-71
2022/01/05 03:33:11;;;;;;;10.88;2.70;;;;;;;2.54;100.00;100174.97;5212503;28;20045;-71
2022/01/05 03:35:45;;;;;;;10.40;2.58;;;;;;;2.52;100.00;100177.69;5211413;28;20088;-71
2022/01/05 03:38:17;;;;;;;9.13;2.47;;;;;;;2.51;100.00;100176.03;5210755;28;20064;-71
2022/01/05 03:40:50;;;;;;;11.55;2.13;;;;;;;2.50;100.00;100184.72;5211718;28;20076;-70
2022/01/05 03:43:21;;;;;;;12.48;2.42;;;;;;;2.48;100.00;100183.13;5212489;28;20026;-70
2022/01/05 03:45:52;;;;;;;9.73;2.40;;;;;;;2.48;100.00;100186.56;5211880;28;20115;-70
2022/01/05 03:48:24;;;;;;;11.57;2.40;;;;;;;2.51;100.00;100191.53;5210778;28;20033;-69
2022/01/05 03:50:55;;;;;;;11.77;2.53;;;;;;;2.50;100.00;100186.44;5211673;28;20080;-70
2022/01/05 03:53:26;;;;;;;8.95;3.03;;;;;;;2.54;100.00;100185.31;5210983;28;20032;-71
2022/01/05 03:55:58;;;;;;;13.50;2.83;;;;;;;2.58;100.00;100192.81;5211128;28;20026;-70
2022/01/05 03:58:29;;;;;;;10.88;2.45;;;;;;;2.57;100.00;100188.56;5211560;28;20076;-70
2022/01/05 04:01:00;;;;;;;13.60;2.97;;;;;;;2.64;100.00;100192.41;5211832;28;20022;-70
2022/01/05 04:03:32;;;;;;;11.88;2.38;;;;;;;2.70;100.00;100185.22;5210996;28;20032;-70
2022/01/05 04:06:05;;;;;;;14.00;3.22;;;;;;;2.65;100.00;100178.59;5210816;28;20034;-70
2022/01/05 04:08:36;;;;;;;12.80;2.28;;;;;;;2.72;100.00;100186.78;5211755;28;20030;-71
2022/01/05 04:11:07;;;;;;;12.85;2.60;;;;;;;2.77;100.00;100186.50;5211118;28;20377;-71
2022/01/05 04:13:38;;;;;;;10.57;2.88;;;;;;;2.75;100.00;100198.69;5210772;28;20086;-71
2022/01/05 04:16:10;;;;;;;12.18;2.88;;;;;;;2.72;100.00;100186.78;5211098;28;20180;-70
2022/01/05 04:18:41;;;;;;;10.45;2.22;;;;;;;2.68;100.00;100196.47;5210874;28;20069;-69
2022/01/05 04:21:12;;;;;;;9.98;2.17;;;;;;;2.72;100.00;100202.28;5211831;28;20041;-71
2022/01/05 04:23:43;;;;;;;11.60;2.70;;;;;;;2.71;100.00;100197.22;5211608;28;20095;-70
2022/01/05 04:26:15;;;;;;;14.02;2.50;;;;;;;2.68;100.00;100201.66;5210504;28;20769;-70
2022/01/05 04:28:46;;;;;;;15.43;3.45;;;;;;;2.62;100.00;100194.28;5210749;28;20026;-70
2022/01/05 04:31:18;;;;;;;13.98;3.03;;;;;;;2.67;100.00;100200.00;5214000;28;20022;-71
2022/01/05 04:33:49;;;;;;;12.43;2.50;;;;;;;2.67;100.00;100205.16;5215083;28;20439;-70
2022/01/05 04:36:21;;;;;;;9.82;2.28;;;;;;;2.65;100.00;100211.34;5214010;28;20030;-70
2022/01/05 04:38:53;;;;;;;15.05;3.15;;;;;;;2.64;100.00;100210.53;5196544;28;20487;-70
2022/01/05 04:41:24;;;;;;;12.30;2.60;;;;;;;2.63;100.00;100210.63;5214377;28;20033;-70
2022/01/05 04:43:55;;;;;;;13.95;2.83;;;;;;;2.64;100.00;100217.47;5214291;28;20032;-70
2022/01/05 04:46:27;;;;;;;17.13;3.28;;;;;;;2.64;100.00;100214.88;5215314;28;20096;-71
2022/01/05 04:48:58;;;;;;;11.02;3.28;;;;;;;2.65;100.00;100221.69;5214556;28;20120;-71
2022/01/05 04:51:29;;;;;;;15.35;3.35;;;;;;;2.69;100.00;100218.03;5214606;28;20037;-70
2022/01/05 04:54:01;;;;;;;16.52;4.28;;;;;;;2.66;100.00;100213.03;5214207;28;20065;-70
2022/01/05 04:56:32;;;;;;;18.23;4.55;;;;;;;2.76;100.00;100221.88;5214566;28;20076;-71
2022/01/05 04:59:03;;;;;;;12.57;3.38;;;;;;;2.82;100.00;100221.50;5214624;28;20368;-71
2022/01/05 05:01:35;;;;;;;19.73;3.65;;;;;;;2.88;100.00;100223.72;5211566;28;20022;-71
2022/01/05 05:04:06;;;;;;;13.73;3.10;;;;;;;2.87;100.00;100221.19;5213699;28;20021;-71
2022/01/05 05:06:37;;;;;;;14.27;3.40;;;;;;;2.96;100.00;100233.56;5213378;28;20029;-71
2022/01/05 05:09:11;;;;;;;11.60;2.65;;;;;;;3.03;100.00;100234.84;5213392;28;20435;-71
2022/01/05 05:11:43;;;;;;;13.55;3.78;;;;;;;3.03;100.00;100237.44;5213239;28;20030;-71
2022/01/05 05:14:14;;;;;;;13.80;2.85;;;;;;;3.04;100.00;100241.69;5213962;28;20045;-71
2022/01/05 05:16:46;;;;;;;12.40;2.90;;;;;;;3.06;100.00;100232.03;5213418;28;20026;-71
2022/01/05 05:19:17;;;;;;;12.25;2.97;;;;;;;3.11;100.00;100231.78;5212988;28;20018;-71
2022/01/05 05:21:48;;;;;;;14.68;3.65;;;;;;;3.07;100.00;100230.28;5214627;28;20021;-71
2022/01/05 05:24:20;;;;;;;14.23;2.75;;;;;;;3.11;100.00;100229.19;5214310;28;20080;-71
2022/01/05 05:26:51;;;;;;;12.65;3.30;;;;;;;3.04;100.00;100225.31;5213387;28;20057;-71
2022/01/05 05:29:22;;;;;;;10.73;2.47;;;;;;;3.05;100.00;100227.81;5213305;28;20125;-71
2022/01/05 05:31:54;;;;;;;8.93;2.60;;;;;;;3.06;100.00;100224.28;5213769;28;20415;-71
2022/01/05 05:34:25;;;;;;;17.85;3.17;;;;;;;3.09;100.00;100228.44;5214261;28;20049;-71
2022/01/05 05:36:57;;;;;;;12.40;3.05;;;;;;;3.09;100.00;100226.69;5213123;28;20049;-71
2022/01/05 05:39:28;;;;;;;14.98;2.95;;;;;;;3.08;100.00;100227.63;5213942;28;20145;-70
2022/01/05 05:41:59;;;;;;;17.83;3.60;;;;;;;3.07;100.00;100232.88;5213630;28;20032;-69
2022/01/05 05:44:30;;;;;;;17.38;2.85;;;;;;;3.08;100.00;100226.78;5212456;28;20029;-71
2022/01/05 05:47:03;;;;;;;12.30;2.40;;;;;;;3.08;100.00;100237.97;5213551;28;20021;-71
2022/01/05 05:49:34;;;;;;;20.48;4.10;;;;;;;3.09;100.00;100229.28;5213053;28;20065;-71
2022/01/05 05:52:05;;;;;;;11.93;3.10;;;;;;;3.11;100.00;100232.59;5213504;28;20103;-71
2022/01/05 05:54:37;;;;;;;13.43;3.25;;;;;;;3.12;100.00;100242.03;5212300;28;20030;-71
2022/01/05 05:57:08;;;;;;;11.80;3.40;;;;;;;3.13;100.00;100248.84;5213776;28;20033;-71
2022/01/05 05:59:39;;;;;;;17.17;4.28;;;;;;;3.12;100.00;100248.97;5213657;28;20063;-71
2022/01/05 06:02:11;;;;;;;12.88;3.10;;;;;;;3.05;100.00;100232.16;5212482;28;20499;-71
2022/01/05 06:04:42;;;;;;;13.73;2.80;;;;;;;3.15;100.00;100251.34;5212668;28;20475;-71
2022/01/05 06:07:13;;;;;;;13.52;3.00;;;;;;;3.14;100.00;100255.72;5213321;28;20411;-71
2022/01/05 06:09:44;;;;;;;11.70;2.90;;;;;;;3.11;100.00;100258.47;5212705;28;20030;-71
2022/01/05 06:12:16;;;;;;;13.57;2.80;;;;;;;3.02;100.00;100250.47;5213662;28;20029;-71
2022/01/05 06:14:47;;;;;;;9.88;2.97;;;;;;;3.14;100.00;100247.94;5213116;28;20404;-71
2022/01/05 06:17:18;;;;;;;18.67;3.17;;;;;;;3.04;100.00;100246.03;5213071;28;20022;-71
2022/01/05 06:19:50;;;;;;;15.95;3.00;;;;;;;3.14;100.00;100257.44;5211942;28;20037;-71
2022/01/05 06:22:21;;;;;;;13.07;2.92;;;;;;;3.16;100.00;100260.78;5213249;28;20030;-71
2022/01/05 06:24:53;;;;;;;13.27;2.78;;;;;;;3.11;100.00;100253.31;5212992;28;20044;-71
2022/01/05 06:27:24;;;;;;;13.30;3.10;;;;;;;3.12;100.00;100267.91;5211669;28;20036;-70
2022/01/05 06:29:55;;;;;;;12.38;3.03;;;;;;;3.14;100.00;100263.47;5212575;28;20064;-71
2022/01/05 06:32:27;;;;;;;13.65;3.17;;;;;;;3.14;100.00;100260.88;5213288;28;20026;-71
2022/01/05 06:34:58;;;;;;;14.75;3.58;;;;;;;3.16;100.00;100271.97;5212130;28;20054;-71
2022/01/05 06:37:29;;;;;;;19.50;3.83;;;;;;;3.18;100.00;100266.66;5194586;28;20029;-70
2022/01/05 06:40:01;;;;;;;11.23;2.75;;;;;;;3.16;100.00;100281.47;5212513;28;20020;-70
2022/01/05 06:42:32;;;;;;;14.70;3.55;;;;;;;3.22;100.00;100288.88;5212732;28;20025;-70
2022/01/05 06:45:04;;;;;;;14.65;3.60;;;;;;;3.23;100.00;100294.88;5211669;28;20066;-70
2022/01/05 06:47:35;;;;;;;16.60;3.75;;;;;;;3.24;100.00;100289.59;5211992;28;20029;-70
2022/01/05 06:50:08;;;;;;;15.50;3.30;;;;;;;3.26;100.00;100298.09;5212590;28;20033;-71
2022/01/05 06:52:40;;;;;;;9.50;2.75;;;;;;;3.21;100.00;100288.94;5210140;28;20033;-71
2022/01/05 06:55:11;;;;;;;14.48;3.10;;;;;;;3.25;100.00;100304.19;5211971;28;20368;-71
2022/01/05 06:57:43;;;;;;;13.07;3.58;;;;;;;3.29;100.00;100299.66;5194646;28;20034;-71
2022/01/05 07:00:14;;;;;;;10.90;3.40;;;;;;;3.28;100.00;100296.22;5211911;28;20598;-71
2022/01/05 07:02:46;;;;;;;12.20;3.35;;;;;;;3.27;100.00;100310.13;5211537;28;20125;-71
2022/01/05 07:05:17;;;;;;;11.20;3.00;;;;;;;3.23;100.00;100311.22;5189846;28;20037;-70
2022/01/05 07:07:48;;;;;;;15.65;3.15;;;;;;;3.28;100.00;100316.13;5209153;28;20117;-70
2022/01/05 07:10:20;;;;;;;10.68;3.30;;;;;;;3.32;100.00;100327.94;5207008;28;20116;-70
2022/01/05 07:12:51;;;;;;;13.60;2.92;;;;;;;3.30;100.00;100327.22;5209461;28;20442;-71
2022/01/05 07:15:23;;;;;;;13.05;3.88;;;;;;;3.30;100.00;100324.63;5211493;28;20030;-71
2022/01/05 07:17:54;;;;;;;15.00;3.38;;;;;;;3.33;100.00;100330.44;5210472;28;20040;-71
2022/01/05 07:20:26;;;;;;;17.92;3.40;;;;;;;3.36;100.00;100330.22;5208798;28;20041;-71
2022/01/05 07:22:57;;;;;;;20.60;4.28;;;;;;;3.36;100.00;100332.00;5211552;28;20140;-71
2022/01/05 07:25:28;;;;;;;13.25;2.83;;;;;;;3.40;100.00;100341.22;5210690;28;20026;-71
2022/01/05 07:28:00;;;;;;;13.40;3.38;;;;;;;3.40;100.00;100341.22;5208461;28;20514;-71
2022/01/05 07:30:31;;;;;;;14.27;3.47;;;;;;;3.46;100.00;100340.03;5210011;28;20527;-71
2022/01/05 07:33:03;;;;;;;14.57;4.88;;;;;;;3.45;100.00;100335.75;5208715;28;20025;-70
2022/01/05 07:35:34;;;;;;;17.73;3.75;;;;;;;3.47;100.00;100345.09;5209821;28;20518;-70
2022/01/05 07:38:06;;;;;;;13.02;3.33;;;;;;;3.49;100.00;100347.59;5211478;28;20484;-71
2022/01/05 07:40:37;;;;;;;20.73;3.45;;;;;;;3.53;100.00;100351.66;5210667;28;20030;-70
2022/01/05 07:43:09;;;;;;;15.20;3.70;;;;;;;3.54;100.00;100353.31;5210941;28;20454;-70
2022/01/05 07:45:40;;;;;;;15.15;3.50;;;;;;;3.63;100.00;100353.53;5211490;28;20491;-71
2022/01/05 07:48:11;;;;;;;13.10;3.80;;;;;;;3.68;100.00;100358.47;5212299;28;20032;-70
2022/01/05 07:50:42;;;;;;;13.68;3.42;;;;;;;3.69;100.00;100361.88;5211471;28;20843;-71
2022/01/05 07:53:14;;;;;;;15.90;3.78;;;;;;;3.72;100.00;100366.88;5210249;28;20071;-71
2022/01/05 07:55:45;;;;;;;16.00;3.50;;;;;;;3.78;100.00;100369.88;5192375;28;20411;-70
2022/01/05 07:58:17;;;;;;;18.33;3.92;;;;;;;3.78;100.00;100371.63;5204155;28;20476;-71
2022/01/05 08:00:48;;;;;;;15.93;3.50;;;;;;;3.87;100.00;100373.66;5204872;28;20033;-71
2022/01/05 08:03:19;;;;;;;18.20;3.60;;;;;;;3.90;100.00;100376.03;5203039;28;20406;-70
2022/01/05 08:05:51;;;;;;;18.98;3.92;;;;;;;3.99;100.00;100378.03;5203773;28;20038;-70
2022/01/05 08:08:22;;;;;;;18.23;3.40;;;;;;;4.03;100.00;100386.44;5215441;28;20045;-71
2022/01/05 08:10:54;;;;;;;13.57;3.28;;;;;;;4.11;100.00;100390.19;5213387;28;20033;-70
2022/01/05 08:13:25;;;;;;;14.50;2.83;;;;;;;4.19;100.00;100392.28;5214662;28;20026;-70
2022/01/05 08:15:57;;;;;;;13.00;3.50;;;;;;;4.24;100.00;100391.97;5212594;28;20112;-71
2022/01/05 08:18:29;;;;;;;13.18;3.40;;;;;;;4.35;100.00;100390.34;5214885;28;20026;-71
2022/01/05 08:21:01;;;;;;;18.30;2.97;;;;;;;4.39;100.00;100393.56;5211646;28;20455;-71
2022/01/05 08:23:32;;;;;;;13.73;3.17;;;;;;;4.43;100.00;100400.22;5211698;28;20046;-70
2022/01/05 08:26:04;;;;;;;17.08;4.18;;;;;;;4.48;100.00;100398.16;5214522;28;20076;-70
2022/01/05 08:28:36;;;;;;;15.15;2.92;;;;;;;4.60;100.00;100399.94;5214360;28;20197;-71
2022/01/05 08:31:07;;;;;;;16.35;3.58;;;;;;;4.58;100.00;100401.81;5213286;28;20203;-72
2022/01/05 08:33:39;;;;;;;12.02;3.45;;;;;;;4.68;100.00;100403.78;5209718;28;20802;-72
2022/01/05 08:36:10;;;;;;;14.55;2.72;;;;;;;4.69;100.00;100405.44;5212084;28;20334;-72
2022/01/05 08:38:41;;;;;;;16.20;2.83;;;;;;;4.68;100.00;100401.19;5211193;28;20061;-70
2022/01/05 08:41:12;;;;;;;15.35;3.30;;;;;;;4.75;100.00;100408.44;5214084;28;20021;-70
2022/01/05 08:43:44;;;;;;;11.15;2.97;;;;;;;4.83;100.00;100402.75;5214321;28;20060;-71
2022/01/05 08:46:15;;;;;;;14.18;3.20;;;;;;;4.87;100.00;100404.19;5212019;28;20499;-71
2022/01/05 08:48:47;;;;;;;11.77;3.03;;;;;;;4.88;100.00;100392.88;5213314;28;20022;-71
2022/01/05 08:51:20;;;;;;;17.52;3.88;;;;;;;4.90;100.00;100408.34;5212226;28;20418;-71
2022/01/05 08:53:52;;;;;;;21.63;3.60;;;;;;;4.98;100.00;100409.47;5211526;28;20026;-70
2022/01/05 08:56:24;;;;;;;14.95;3.95;;;;;;;4.96;100.00;100405.31;5208121;28;20067;-70
2022/01/05 08:58:56;;;;;;;14.17;3.17;;;;;;;4.95;100.00;100414.03;5207404;28;20021;-72
2022/01/05 09:01:27;;;;;;;12.20;2.65;;;;;;;4.94;100.00;100413.22;5212920;28;21412;-70
2022/01/05 09:03:58;;;;;;;12.27;3.17;;;;;;;5.00;100.00;100414.56;5212576;28;20372;-71
2022/01/05 09:06:30;;;;;;;13.63;3.22;;;;;;;5.05;100.00;100421.09;5212572;28;20419;-71
2022/01/05 09:09:02;;;;;;;15.60;3.15;;;;;;;5.10;100.00;100429.41;5213287;28;20022;-71
2022/01/05 09:11:34;;;;;;;13.30;3.13;;;;;;;5.18;100.00;100422.84;5211737;28;20033;-71
2022/01/05 09:14:06;;;;;;;11.02;2.97;;;;;;;5.26;100.00;100436.13;5211055;28;20030;-71
2022/01/05 09:16:37;;;;;;;16.60;3.10;;;;;;;5.25;100.00;100424.91;5209977;28;20026;-72
2022/01/05 09:19:08;;;;;;;16.48;3.50;;;;;;;5.35;100.00;100427.72;5193133;28;20080;-72
2022/01/05 09:21:40;;;;;;;9.18;2.65;;;;;;;5.34;100.00;100426.91;5212029;28;20167;-71
2022/01/05 09:24:11;;;;;;;12.07;2.90;;;;;;;5.33;100.00;100414.00;5209905;28;20029;-71
2022/01/05 09:26:43;;;;;;;11.82;3.03;;;;;;;5.47;100.00;100429.47;5210869;28;20041;-70
2022/01/05 09:29:14;;;;;;;12.50;3.00;;;;;;;5.50;100.00;100428.41;5209620;28;20363;-70
2022/01/05 09:31:45;;;;;;;16.80;3.85;;;;;;;5.56;100.00;100444.38;5211926;28;20034;-71
2022/01/05 09:34:17;;;;;;;23.23;4.03;;;;;;;5.58;100.00;100436.50;5209275;28;20676;-71
2022/01/05 09:36:56;;;;;;;16.73;3.78;;;;;;;5.60;100.00;100451.03;5212178;28;20028;-71
2022/01/05 09:42:17;;;;;;;16.63;2.88;;;;;;;5.58;100.00;100460.72;5213567;28;20534;-71
2022/01/05 09:44:52;;;;;;;11.10;2.80;;;;;;;5.59;100.00;100470.16;5212912;28;20049;-71
2022/01/05 09:47:52;;;;;;;13.88;3.05;;;;;;;5.60;100.00;100474.41;5211248;28;20037;-71
2022/01/05 09:50:26;;;;;;;17.45;3.30;;;;;;;5.61;100.00;100477.88;5186058;28;20132;-70
2022/01/05 09:52:58;;;;;;;15.00;3.85;;;;;;;5.52;100.00;100474.13;5211518;28;20026;-72
2022/01/05 09:55:29;;;;;;;14.50;2.95;;;;;;;5.56;100.00;100488.56;5210244;28;20590;-70
2022/01/05 09:58:00;;;;;;;12.80;3.38;;;;;;;5.56;100.00;100478.16;5211436;28;20037;-71
2022/01/05 10:00:32;;;;;;;15.80;2.97;;;;;;;5.53;100.00;100481.00;5211558;28;20152;-71
2022/01/05 10:03:07;;;;;;;18.00;3.30;;;;;;;5.55;100.00;100492.09;5192520;28;20034;-71
2022/01/05 10:05:38;;;;;;;18.73;3.05;;;;;;;5.50;100.00;100478.63;5211816;28;20028;-71
2022/01/05 10:08:10;;;;;;;13.00;3.28;;;;;;;5.52;100.00;100479.31;5210949;28;20021;-72
2022/01/05 10:10:42;;;;;;;15.05;3.22;;;;;;;5.60;100.00;100483.97;5211049;28;20483;-71
2022/01/05 10:13:15;;;;;;;13.50;2.90;;;;;;;5.69;100.00;100472.13;5211817;28;20040;-71
2022/01/05 10:15:47;;;;;;;14.80;3.00;;;;;;;5.69;100.00;100478.16;5211451;28;20396;-72
2022/01/05 10:18:22;;;;;;;16.95;2.88;;;;;;;5.75;100.00;100482.91;5211012;28;20148;-72
2022/01/05 10:21:02;;;;;;;14.07;3.60;;;;;;;5.86;100.00;100488.19;5210745;28;20071;-71
2022/01/05 10:23:52;;;;;;;14.15;3.65;;;;;;;5.84;100.00;100499.66;5209674;28;20037;-71
2022/01/05 10:26:30;;;;;;;14.98;3.17;;;;;;;5.89;100.00;100491.50;5211670;28;20113;-72
2022/01/05 10:29:07;;;;;;;11.35;2.90;;;;;;;6.08;100.00;100513.53;5210024;28;20018;-72
2022/01/05 10:31:40;;;;;;;13.52;3.05;;;;;;;6.12;100.00;100510.72;5211216;28;20088;-72
2022/01/05 10:34:20;;;;;;;13.68;3.50;;;;;;;6.24;100.00;100496.81;5211855;28;20084;-70
2022/01/05 10:37:00;;;;;;;15.38;2.72;;;;;;;6.25;100.00;100511.47;5183697;28;20061;-70
2022/01/05 10:39:39;;;;;;;14.45;2.90;;;;;;;6.27;100.00;100500.03;5209937;28;20106;-70
2022/01/05 10:42:12;;;;;;;14.68;2.70;;;;;;;6.24;100.00;100497.66;5211364;28;20037;-72
2022/01/05 10:44:50;;;;;;;15.55;2.95;;;;;;;6.40;100.00;100514.75;5212215;28;20085;-72
2022/01/05 10:47:22;;;;;;;15.32;3.00;;;;;;;6.33;100.00;100509.19;5211291;28;20045;-72
2022/01/05 10:49:54;;;;;;;14.20;3.55;;;;;;;6.36;100.00;100511.53;5210497;28;20018;-72
2022/01/05 10:52:27;;;;;;;13.30;3.33;;;;;;;6.39;100.00;100526.09;5211669;28;20033;-71
2022/01/05 10:55:12;;;;;;;14.35;3.30;;;;;;;6.47;100.00;100532.41;5211745;28;20383;-72
2022/01/05 10:58:11;;;;;;;22.80;3.90;;;;;;;6.53;100.00;100524.16;5211033;28;20041;-72
2022/01/05 11:00:50;;;;;;;17.25;3.35;;;;;;;6.54;100.00;100531.03;5212167;28;20029;-70
2022/01/05 11:03:39;;;;;;;15.68;3.65;;;;;;;6.75;100.00;100533.00;5193460;28;20384;-72
2022/01/05 11:06:17;;;;;;;16.63;3.40;;;;;;;6.75;100.00;100533.00;5211100;28;20036;-71
2022/01/05 11:09:00;;;;;;;16.65;3.22;;;;;;;6.85;100.00;100549.59;5211113;28;20030;-72
2022/01/05 11:11:43;;;;;;;19.33;3.55;;;;;;;6.79;100.00;100542.25;5211041;28;20025;-72
2022/01/05 11:14:20;;;;;;;14.57;3.15;;;;;;;6.71;100.00;100547.19;5211312;28;20108;-70
2022/01/05 11:16:51;;;;;;;12.55;3.13;;;;;;;6.65;100.00;100547.63;5210185;28;20451;-72
2022/01/05 11:19:27;;;;;;;15.90;2.95;;;;;;;6.87;100.00;100552.09;5211133;28;20037;-71
2022/01/05 11:21:58;;;;;;;16.90;3.15;;;;;;;6.76;100.00;100550.28;5211683;28;20024;-72
2022/01/05 11:24:37;;;;;;;18.97;3.23;;;;;;;6.81;100.00;100545.56;5210899;28;21752;-72
2022/01/05 11:27:18;;;;;;;14.05;3.33;;;;;;;6.76;100.00;100547.69;5209914;28;20296;-72
2022/01/05 11:29:49;;;;;;;16.15;3.25;;;;;;;6.71;100.00;100561.03;5211416;28;20026;-72
2022/01/05 11:32:27;;;;;;;12.25;3.22;;;;;;;6.73;100.00;100564.34;5210450;28;20052;-72
2022/01/05 11:34:58;;;;;;;15.50;3.20;;;;;;;6.69;100.00;100562.91;5211803;28;20476;-71
2022/01/05 11:37:29;;;;;;;15.00;3.45;;;;;;;6.60;100.00;100571.41;5211521;28;20071;-71
2022/01/05 11:40:05;;;;;;;16.63;3.03;;;;;;;6.70;100.00;100574.97;5210351;28;20022;-71
2022/01/05 11:42:39;;;;;;;10.13;3.13;;;;;;;6.65;100.00;100569.28;5215201;28;20125;-71
2022/01/05 11:45:10;;;;;;;15.70;3.97;;;;;;;6.60;100.00;100560.16;5214886;28;20038;-70